createdAt,value
2019-03-13T00:02:20.906Z,0.80
2019-03-13T00:04:48.277Z,2.05
2019-03-13T00:07:15.666Z,1.00
2019-03-13T00:09:43.075Z,0.82
2019-03-13T00:12:10.482Z,1.35
2019-03-13T00:14:37.939Z,0.80
2019-03-13T00:17:05.343Z,1.55
2019-03-13T00:19:32.661Z,1.02
2019-03-13T00:21:59.995Z,1.87
2019-03-13T00:24:27.379Z,6.85
2019-03-13T00:26:54.696Z,2.00
2019-03-13T00:29:22.106Z,1.45
2019-03-13T00:31:49.421Z,0.68
2019-03-13T00:34:16.864Z,0.62
2019-03-13T00:36:44.277Z,1.87
2019-03-13T00:39:11.715Z,1.82
2019-03-13T00:41:39.109Z,1.10
2019-03-13T00:44:06.423Z,0.90
2019-03-13T00:46:33.835Z,1.98
2019-03-13T00:49:01.364Z,1.00
2019-03-13T00:51:28.730Z,0.53
2019-03-13T00:53:56.081Z,0.70
2019-03-13T00:56:23.436Z,0.78
2019-03-13T00:58:50.840Z,0.80
2019-03-13T01:01:37.817Z,0.82
2019-03-13T01:04:27.299Z,1.35
2019-03-13T01:07:00.946Z,0.50
2019-03-13T01:09:28.267Z,0.53
2019-03-13T01:11:55.675Z,0.40
2019-03-13T01:14:22.962Z,1.50
2019-03-13T01:16:50.299Z,0.88
2019-03-13T01:19:17.626Z,0.60
2019-03-13T01:21:44.980Z,0.30
2019-03-13T01:24:12.382Z,0.55
2019-03-13T01:26:39.839Z,0.70
2019-03-13T01:29:07.293Z,0.40
2019-03-13T01:31:53.019Z,0.37
2019-03-13T01:34:36.210Z,0.40
2019-03-13T01:37:04.038Z,0.80
2019-03-13T01:39:31.432Z,0.35
2019-03-13T01:41:58.877Z,0.30
2019-03-13T01:44:27.130Z,0.40
2019-03-13T01:46:55.008Z,0.30
2019-03-13T01:49:22.349Z,0.33
2019-03-13T01:51:49.668Z,0.40
2019-03-13T01:54:17.062Z,0.30
2019-03-13T01:56:44.397Z,0.28
2019-03-13T01:59:11.793Z,0.20
2019-03-13T02:01:39.098Z,0.30
2019-03-13T02:04:06.487Z,1.00
2019-03-13T02:06:33.936Z,0.20
2019-03-13T02:09:01.265Z,1.10
2019-03-13T02:11:28.657Z,0.20
2019-03-13T02:14:15.562Z,0.30
2019-03-13T02:16:42.991Z,0.30
2019-03-13T02:19:10.389Z,0.40
2019-03-13T02:21:37.682Z,0.20
2019-03-13T02:24:05.135Z,0.20
2019-03-13T02:26:32.817Z,0.30
2019-03-13T02:29:00.142Z,0.30
2019-03-13T02:31:27.552Z,0.20
2019-03-13T02:33:54.929Z,0.20
2019-03-13T02:36:22.355Z,0.20
2019-03-13T02:38:49.774Z,0.28
2019-03-13T02:41:17.181Z,0.20
2019-03-13T02:43:44.854Z,0.20
2019-03-13T02:46:12.125Z,0.30
2019-03-13T02:48:39.568Z,0.30
2019-03-13T02:51:07.240Z,0.20
2019-03-13T02:53:34.603Z,0.30
2019-03-13T02:56:01.888Z,0.30
2019-03-13T02:58:29.290Z,0.50
2019-03-13T03:01:19.165Z,0.37
2019-03-13T03:03:50.060Z,0.30
2019-03-13T03:06:17.348Z,0.75
2019-03-13T03:08:44.775Z,0.40
2019-03-13T03:11:12.183Z,0.20
2019-03-13T03:13:39.836Z,0.20
2019-03-13T03:16:07.230Z,0.30
2019-03-13T03:18:34.670Z,0.30
2019-03-13T03:21:02.076Z,0.50
2019-03-13T03:23:30.177Z,0.55
2019-03-13T03:25:57.714Z,0.40
2019-03-13T03:28:25.009Z,0.40
2019-03-13T03:30:52.813Z,0.23
2019-03-13T03:33:20.213Z,0.30
2019-03-13T03:35:47.623Z,0.60
2019-03-13T03:38:15.037Z,0.30
2019-03-13T03:40:42.326Z,0.40
2019-03-13T03:43:09.640Z,0.35
2019-03-13T03:45:37.074Z,0.30
2019-03-13T03:48:04.365Z,0.30
2019-03-13T03:50:31.812Z,0.95
2019-03-13T03:52:59.202Z,0.30
2019-03-13T03:55:26.542Z,0.30
2019-03-13T03:57:53.923Z,0.30
2019-03-13T04:00:21.371Z,0.28
2019-03-13T04:02:48.653Z,0.30
2019-03-13T04:05:16.683Z,0.30
2019-03-13T04:07:44.062Z,0.25
2019-03-13T04:10:11.720Z,0.40
2019-03-13T04:12:39.032Z,0.30
2019-03-13T04:15:06.491Z,0.30
2019-03-13T04:17:33.867Z,0.40
2019-03-13T04:20:01.333Z,0.28
2019-03-13T04:22:28.722Z,0.47
2019-03-13T04:25:28.487Z,1.37
2019-03-13T04:27:56.457Z,0.30
2019-03-13T04:30:24.300Z,0.35
2019-03-13T04:32:51.737Z,0.42
2019-03-13T04:35:19.215Z,0.70
2019-03-13T04:37:46.623Z,0.30
2019-03-13T04:40:14.031Z,3.90
2019-03-13T04:42:41.426Z,0.50
2019-03-13T04:45:08.838Z,0.42
2019-03-13T04:47:36.174Z,0.33
2019-03-13T04:50:03.550Z,0.65
2019-03-13T04:52:30.950Z,0.30
2019-03-13T04:54:58.350Z,0.30
2019-03-13T04:57:25.738Z,0.50
2019-03-13T04:59:53.036Z,0.30
2019-03-13T05:02:20.326Z,0.57
2019-03-13T05:04:47.586Z,0.60
2019-03-13T05:07:14.900Z,0.60
2019-03-13T05:09:42.296Z,0.40
2019-03-13T05:12:09.731Z,1.52
2019-03-13T05:14:37.163Z,0.40
2019-03-13T05:17:04.623Z,0.40
2019-03-13T05:19:32.378Z,0.40
2019-03-13T05:21:59.766Z,0.30
2019-03-13T05:24:27.254Z,0.88
2019-03-13T05:26:54.713Z,0.50
2019-03-13T05:29:22.184Z,0.30
2019-03-13T05:31:49.627Z,0.37
2019-03-13T05:34:17.061Z,0.40
2019-03-13T05:36:44.458Z,0.40
2019-03-13T05:39:11.859Z,0.35
2019-03-13T05:41:39.191Z,0.65
2019-03-13T05:44:06.659Z,0.78
2019-03-13T05:46:34.042Z,0.40
2019-03-13T05:49:01.514Z,0.70
2019-03-13T05:51:29.303Z,0.70
2019-03-13T05:53:57.654Z,0.33
2019-03-13T05:56:24.978Z,0.50
2019-03-13T05:58:52.446Z,0.37
2019-03-13T06:01:19.865Z,0.60
2019-03-13T06:03:47.300Z,0.30
2019-03-13T06:06:14.790Z,0.50
2019-03-13T06:08:42.177Z,0.40
2019-03-13T06:11:09.557Z,0.78
2019-03-13T06:13:36.842Z,0.50
2019-03-13T06:16:04.163Z,0.50
2019-03-13T06:18:31.466Z,0.40
2019-03-13T06:20:58.803Z,0.45
2019-03-13T06:23:26.235Z,0.60
2019-03-13T06:25:53.615Z,0.70
2019-03-13T06:28:21.079Z,1.17
2019-03-13T06:30:48.437Z,1.47
2019-03-13T06:33:15.756Z,1.98
2019-03-13T06:35:43.513Z,1.62
2019-03-13T06:38:10.918Z,0.70
2019-03-13T06:40:38.625Z,0.40
2019-03-13T06:43:05.991Z,1.05
2019-03-13T06:45:33.316Z,0.93
2019-03-13T06:48:00.746Z,1.17
2019-03-13T06:50:28.166Z,0.50
2019-03-13T06:52:55.547Z,0.65
2019-03-13T06:55:22.867Z,0.53
2019-03-13T06:57:50.158Z,0.70
2019-03-13T07:00:41.198Z,0.42
2019-03-13T07:03:34.055Z,0.50
2019-03-13T07:06:12.647Z,0.88
2019-03-13T07:09:05.386Z,0.50
2019-03-13T07:12:00.973Z,0.50
2019-03-13T07:14:56.488Z,0.50
2019-03-13T07:17:40.401Z,0.40
2019-03-13T07:20:28.524Z,0.65
2019-03-13T07:23:06.963Z,1.40
2019-03-13T07:26:03.195Z,0.90
2019-03-13T07:28:48.665Z,1.42
2019-03-13T07:31:41.380Z,2.35
2019-03-13T07:34:15.313Z,1.80
2019-03-13T07:36:58.623Z,0.55
2019-03-13T07:39:35.861Z,0.62
2019-03-13T07:42:13.787Z,0.62
2019-03-13T07:45:09.789Z,0.68
2019-03-13T07:47:59.548Z,0.40
2019-03-13T07:50:55.444Z,0.50
2019-03-13T07:53:42.773Z,1.00
2019-03-13T07:56:32.685Z,0.53
2019-03-13T07:59:14.565Z,0.90
2019-03-13T08:01:54.931Z,0.90
2019-03-13T08:04:29.566Z,1.50
2019-03-13T08:07:05.574Z,1.45
2019-03-13T08:09:51.248Z,1.40
2019-03-13T08:12:36.503Z,0.98
2019-03-13T08:15:21.889Z,1.20
2019-03-13T08:18:15.700Z,3.22
2019-03-13T08:21:01.319Z,0.72
2019-03-13T08:23:35.004Z,0.50
2019-03-13T08:26:24.682Z,0.50
2019-03-13T08:29:06.941Z,0.50
2019-03-13T08:31:53.292Z,0.47
2019-03-13T08:34:52.144Z,1.05
2019-03-13T08:37:42.480Z,0.68
2019-03-13T08:40:18.344Z,0.50
2019-03-13T08:43:02.484Z,0.53
2019-03-13T08:45:48.196Z,0.42
2019-03-13T08:48:35.070Z,0.60
2019-03-13T08:51:30.759Z,1.00
2019-03-13T08:54:16.745Z,1.62
2019-03-13T08:56:59.200Z,0.53
2019-03-13T08:59:54.899Z,0.85
2019-03-13T09:02:50.747Z,0.62
2019-03-13T09:05:34.261Z,0.40
2019-03-13T09:08:20.299Z,0.45
2019-03-13T09:11:05.944Z,1.05
2019-03-13T09:13:45.668Z,2.77
2019-03-13T09:16:25.887Z,0.85
2019-03-13T09:19:18.867Z,0.85
2019-03-13T09:22:01.065Z,0.88
2019-03-13T09:24:45.069Z,0.40
2019-03-13T09:27:37.909Z,0.30
2019-03-13T09:30:40.674Z,0.40
2019-03-13T09:33:33.506Z,0.42
2019-03-13T09:36:19.491Z,0.30
2019-03-13T09:39:09.436Z,0.50
2019-03-13T09:41:43.819Z,0.30
2019-03-13T09:44:29.493Z,0.42
2019-03-13T09:47:09.664Z,2.52
2019-03-13T09:49:59.691Z,0.85
2019-03-13T09:52:52.284Z,0.33
2019-03-13T09:55:45.072Z,0.30
2019-03-13T09:58:43.633Z,0.70
2019-03-13T10:01:23.169Z,0.30
2019-03-13T10:04:06.100Z,0.40
2019-03-13T10:06:55.866Z,0.20
2019-03-13T10:09:41.206Z,0.70
2019-03-13T10:12:31.173Z,0.37
2019-03-13T10:15:16.560Z,0.30
2019-03-13T10:18:02.096Z,0.40
2019-03-13T10:20:47.566Z,0.30
2019-03-13T10:23:26.608Z,0.50
2019-03-13T10:26:01.748Z,0.30
2019-03-13T10:28:47.244Z,0.30
2019-03-13T10:31:26.086Z,0.62
2019-03-13T10:34:16.034Z,0.35
2019-03-13T10:37:01.653Z,0.30
2019-03-13T10:39:43.535Z,0.30
2019-03-13T10:42:33.447Z,0.40
2019-03-13T10:45:15.738Z,0.30
2019-03-13T10:47:47.756Z,0.40
2019-03-13T10:50:40.960Z,0.40
2019-03-13T10:53:39.851Z,0.40
2019-03-13T10:56:29.590Z,0.30
2019-03-13T10:59:15.467Z,1.17
2019-03-13T11:01:52.810Z,0.30
2019-03-13T11:04:38.697Z,0.40
2019-03-13T11:07:24.451Z,0.97
2019-03-13T11:10:10.153Z,0.40
2019-03-13T11:12:48.844Z,0.40
2019-03-13T11:15:31.708Z,0.40
2019-03-13T11:18:24.491Z,0.40
2019-03-13T11:21:09.478Z,0.60
2019-03-13T11:23:52.102Z,1.80
2019-03-13T11:26:37.313Z,1.30
2019-03-13T11:29:26.823Z,0.43
2019-03-13T11:32:32.002Z,0.40
2019-03-13T11:35:28.477Z,0.30
2019-03-13T11:38:13.867Z,0.85
2019-03-13T11:41:02.240Z,0.70
2019-03-13T11:43:51.946Z,1.05
2019-03-13T11:46:47.224Z,0.93
2019-03-13T11:49:34.055Z,1.60
2019-03-13T11:52:24.001Z,1.00
2019-03-13T11:55:13.816Z,1.23
2019-03-13T11:57:54.676Z,0.87
2019-03-13T12:00:47.441Z,0.60
2019-03-13T12:03:31.240Z,0.40
2019-03-13T12:06:24.504Z,0.40
2019-03-13T12:09:07.594Z,0.40
2019-03-13T12:11:57.321Z,0.72
2019-03-13T12:14:53.325Z,0.20
2019-03-13T12:17:38.882Z,0.30
2019-03-13T12:20:35.538Z,2.87
2019-03-13T12:23:31.354Z,0.55
2019-03-13T12:26:18.241Z,0.50
2019-03-13T12:29:09.871Z,0.98
2019-03-13T12:31:56.815Z,0.40
2019-03-13T12:34:46.710Z,0.80
2019-03-13T12:37:32.866Z,0.45
2019-03-13T12:40:18.478Z,0.50
2019-03-13T12:42:55.694Z,1.85
2019-03-13T12:45:37.853Z,0.40
2019-03-13T12:48:16.857Z,0.40
2019-03-13T12:51:00.780Z,0.40
2019-03-13T12:53:49.907Z,1.00
2019-03-13T12:56:23.728Z,0.70
2019-03-13T12:58:59.200Z,0.40
2019-03-13T13:01:58.435Z,0.40
2019-03-13T13:04:35.664Z,0.50
2019-03-13T13:07:21.135Z,0.70
2019-03-13T13:10:07.952Z,1.00
2019-03-13T13:12:49.322Z,0.40
2019-03-13T13:15:30.416Z,1.20
2019-03-13T13:18:15.786Z,1.85
2019-03-13T13:20:43.248Z,0.30
2019-03-13T13:23:10.671Z,1.10
2019-03-13T13:25:38.124Z,0.72
2019-03-13T13:28:05.627Z,1.03
2019-03-13T13:30:33.077Z,0.40
2019-03-13T13:33:00.488Z,0.87
2019-03-13T13:35:28.053Z,0.47
2019-03-13T13:37:55.425Z,0.40
2019-03-13T13:40:22.901Z,0.57
2019-03-13T13:42:50.325Z,0.50
2019-03-13T13:45:50.932Z,0.50
2019-03-13T13:48:18.689Z,1.03
2019-03-13T13:50:46.130Z,0.60
2019-03-13T13:53:13.572Z,0.50
2019-03-13T13:55:41.365Z,1.13
2019-03-13T13:58:08.759Z,0.55
2019-03-13T14:00:36.291Z,0.30
2019-03-13T14:03:03.958Z,0.53
2019-03-13T14:05:31.478Z,1.07
2019-03-13T14:07:58.900Z,1.15
2019-03-13T14:10:26.309Z,0.80
2019-03-13T14:12:53.787Z,1.70
2019-03-13T14:15:21.321Z,0.60
2019-03-13T14:17:48.814Z,1.35
2019-03-13T14:20:16.256Z,1.05
2019-03-13T14:22:43.699Z,0.40
2019-03-13T14:25:11.699Z,1.15
2019-03-13T14:27:39.135Z,0.60
2019-03-13T14:30:07.039Z,0.65
2019-03-13T14:32:34.495Z,0.30
2019-03-13T14:35:02.089Z,0.30
2019-03-13T14:37:32.235Z,0.70
2019-03-13T14:40:02.761Z,0.30
2019-03-13T14:42:30.773Z,1.43
2019-03-13T14:44:58.245Z,1.00
2019-03-13T14:47:25.702Z,0.82
2019-03-13T14:49:53.174Z,0.50
2019-03-13T14:52:20.853Z,2.90
2019-03-13T14:54:48.226Z,0.50
2019-03-13T14:57:15.660Z,0.93
2019-03-13T14:59:43.003Z,0.30
2019-03-13T15:02:10.555Z,0.30
2019-03-13T15:04:37.959Z,0.40
2019-03-13T15:07:05.726Z,1.05
2019-03-13T15:09:33.183Z,0.30
2019-03-13T15:12:00.617Z,0.70
2019-03-13T15:14:28.379Z,0.70
2019-03-13T15:16:56.320Z,0.40
2019-03-13T15:19:24.403Z,0.70
2019-03-13T15:21:51.828Z,1.55
2019-03-13T15:24:19.220Z,0.60
2019-03-13T15:26:46.907Z,0.40
2019-03-13T15:29:14.371Z,0.40
2019-03-13T15:31:41.794Z,0.85
2019-03-13T15:34:09.245Z,0.30
2019-03-13T15:36:36.641Z,0.40
2019-03-13T15:39:05.652Z,0.72
2019-03-13T15:41:33.090Z,0.40
2019-03-13T15:44:00.544Z,0.68
2019-03-13T15:46:27.960Z,0.40
2019-03-13T15:48:55.433Z,0.60
2019-03-13T15:51:22.977Z,0.40
2019-03-13T15:53:50.413Z,2.58
2019-03-13T15:56:18.206Z,1.50
2019-03-13T15:58:45.567Z,0.50
2019-03-13T16:01:12.992Z,1.50
2019-03-13T16:03:40.451Z,1.60
2019-03-13T16:06:07.883Z,0.60
2019-03-13T16:08:35.434Z,0.30
2019-03-13T16:11:02.845Z,0.75
2019-03-13T16:13:30.309Z,2.58
2019-03-13T16:15:57.741Z,1.47
2019-03-13T16:18:25.157Z,0.60
2019-03-13T16:20:52.651Z,1.57
2019-03-13T16:23:20.484Z,0.50
2019-03-13T16:25:48.030Z,1.20
2019-03-13T16:28:15.497Z,0.53
2019-03-13T16:30:43.651Z,0.85
2019-03-13T16:33:11.109Z,0.65
2019-03-13T16:35:38.560Z,0.70
2019-03-13T16:38:06.327Z,0.57
2019-03-13T16:40:33.792Z,1.10
2019-03-13T16:43:04.290Z,0.80
2019-03-13T16:45:31.751Z,0.72
2019-03-13T16:47:59.166Z,2.75
2019-03-13T16:50:26.670Z,0.40
2019-03-13T16:52:54.105Z,0.40
2019-03-13T16:55:21.947Z,0.40
2019-03-13T16:57:49.406Z,0.30
2019-03-13T17:00:21.640Z,0.40
2019-03-13T17:02:48.989Z,0.60
2019-03-13T17:05:16.924Z,0.45
2019-03-13T17:07:44.351Z,0.30
2019-03-13T17:10:14.541Z,0.40
2019-03-13T17:12:42.010Z,0.65
2019-03-13T17:15:12.523Z,0.85
2019-03-13T17:17:39.967Z,0.57
2019-03-13T17:20:10.831Z,0.40
2019-03-13T17:22:38.584Z,0.40
2019-03-13T17:25:07.125Z,1.10
2019-03-13T17:27:34.562Z,0.40
2019-03-13T17:30:02.054Z,4.20
2019-03-13T17:32:29.474Z,0.47
2019-03-13T17:34:56.935Z,1.92
2019-03-13T17:37:25.163Z,0.68
2019-03-13T17:39:53.133Z,0.90
2019-03-13T17:42:20.932Z,2.00
2019-03-13T17:44:49.274Z,3.95
2019-03-13T17:47:17.360Z,1.12
2019-03-13T17:49:45.464Z,1.67
2019-03-13T17:52:13.771Z,1.27
2019-03-13T17:54:41.573Z,1.00
2019-03-13T17:57:10.117Z,0.60
2019-03-13T17:59:38.550Z,0.60
2019-03-13T18:02:06.855Z,2.42
2019-03-13T18:04:35.063Z,0.72
2019-03-13T18:07:03.230Z,1.12
2019-03-13T18:09:31.568Z,0.40
2019-03-13T18:11:59.505Z,0.50
2019-03-13T18:14:31.811Z,0.95
2019-03-13T18:16:57.091Z,0.40
2019-03-13T18:19:25.155Z,0.68
2019-03-13T18:21:53.106Z,0.75
2019-03-13T18:24:21.816Z,0.40
2019-03-13T18:26:50.379Z,0.90
2019-03-13T18:29:18.984Z,1.35
2019-03-13T18:31:47.314Z,0.30
2019-03-13T18:34:15.386Z,0.35
2019-03-13T18:36:52.706Z,0.40
2019-03-13T18:39:20.548Z,2.37
2019-03-13T18:41:48.943Z,0.50
2019-03-13T18:44:16.972Z,0.78
2019-03-13T18:46:45.134Z,0.30
2019-03-13T18:49:13.115Z,4.33
2019-03-13T18:51:42.785Z,0.40
2019-03-13T18:54:11.150Z,0.40
2019-03-13T18:56:39.202Z,1.77
2019-03-13T18:59:07.468Z,1.50
2019-03-13T19:01:35.401Z,1.50
2019-03-13T19:04:03.480Z,3.45
2019-03-13T19:06:31.711Z,4.83
2019-03-13T19:08:59.731Z,7.85
2019-03-13T19:11:27.572Z,5.92
2019-03-13T19:13:58.105Z,2.10
2019-03-13T19:16:25.620Z,1.47
2019-03-13T19:18:56.111Z,1.77
2019-03-13T19:21:24.083Z,0.40
2019-03-13T19:23:52.241Z,0.50
2019-03-13T19:26:20.226Z,0.75
2019-03-13T19:28:48.128Z,0.45
2019-03-13T19:31:16.301Z,0.85
2019-03-13T19:33:44.409Z,0.40
2019-03-13T19:36:12.091Z,1.17
2019-03-13T19:38:41.182Z,0.85
2019-03-13T19:41:09.573Z,1.92
2019-03-13T19:43:38.577Z,2.67
2019-03-13T19:46:06.137Z,0.85
2019-03-13T19:48:33.781Z,0.50
2019-03-13T19:51:01.711Z,0.95
2019-03-13T19:53:29.313Z,2.37
2019-03-13T19:55:57.057Z,1.10
2019-03-13T19:58:24.732Z,0.45
2019-03-13T20:00:52.912Z,0.30
2019-03-13T20:03:20.524Z,0.60
2019-03-13T20:05:48.205Z,1.90
2019-03-13T20:08:15.785Z,5.17
2019-03-13T20:10:43.365Z,0.53
2019-03-13T20:13:11.278Z,0.70
2019-03-13T20:15:39.135Z,2.45
2019-03-13T20:18:06.795Z,1.72
2019-03-13T20:20:34.457Z,2.05
2019-03-13T20:23:05.451Z,2.47
2019-03-13T20:25:33.818Z,3.17
2019-03-13T20:28:01.522Z,4.05
2019-03-13T20:30:29.470Z,5.25
2019-03-13T20:32:59.515Z,5.72
2019-03-13T20:35:27.133Z,5.05
2019-03-13T20:37:55.158Z,3.58
2019-03-13T20:40:26.080Z,2.67
2019-03-13T20:42:54.127Z,1.35
2019-03-13T20:45:22.634Z,0.60
2019-03-13T20:47:50.632Z,0.62
2019-03-13T20:50:18.527Z,0.30
2019-03-13T20:52:46.146Z,2.17
2019-03-13T20:55:13.774Z,0.60
2019-03-13T20:57:41.859Z,0.60
2019-03-13T21:00:11.867Z,0.37
2019-03-13T21:02:39.644Z,0.88
2019-03-13T21:05:07.346Z,0.68
2019-03-13T21:07:35.517Z,0.80
2019-03-13T21:10:04.018Z,3.83
2019-03-13T21:12:31.621Z,3.35
2019-03-13T21:14:59.195Z,3.10
2019-03-13T21:17:27.390Z,1.00
2019-03-13T21:19:55.206Z,0.98
2019-03-13T21:22:22.843Z,1.05
2019-03-13T21:24:50.391Z,1.67
2019-03-13T21:27:17.911Z,1.85
2019-03-13T21:29:45.446Z,0.90
2019-03-13T21:32:13.032Z,1.27
2019-03-13T21:34:40.510Z,1.47
2019-03-13T21:37:08.199Z,1.25
2019-03-13T21:39:35.698Z,1.50
2019-03-13T21:42:03.409Z,0.62
2019-03-13T21:44:30.917Z,1.12
2019-03-13T21:46:58.484Z,2.22
2019-03-13T21:49:25.971Z,1.27
2019-03-13T21:51:54.715Z,1.30
2019-03-13T21:54:22.596Z,1.72
2019-03-13T21:56:50.062Z,0.72
2019-03-13T21:59:17.564Z,0.53
2019-03-13T22:01:45.056Z,2.70
2019-03-13T22:04:23.481Z,1.47
2019-03-13T22:06:43.134Z,1.05
2019-03-13T22:09:11.132Z,0.80
2019-03-13T22:11:38.653Z,1.30
2019-03-13T22:14:06.225Z,0.90
2019-03-13T22:16:33.716Z,0.93
2019-03-13T22:19:01.183Z,2.45
2019-03-13T22:21:29.098Z,1.72
2019-03-13T22:23:56.673Z,2.27
2019-03-13T22:26:24.230Z,2.30
2019-03-13T22:28:53.615Z,4.28
2019-03-13T22:31:21.232Z,2.52
2019-03-13T22:33:49.052Z,4.55
2019-03-13T22:36:16.496Z,3.95
2019-03-13T22:38:43.905Z,5.45
2019-03-13T22:41:11.336Z,6.15
2019-03-13T22:43:38.766Z,5.08
2019-03-13T22:46:06.209Z,6.15
2019-03-13T22:48:33.629Z,3.00
2019-03-13T22:51:02.482Z,1.92
2019-03-13T22:53:30.477Z,3.37
2019-03-13T22:55:58.143Z,1.30
2019-03-13T22:58:25.470Z,1.77
2019-03-13T23:01:07.576Z,3.58
2019-03-13T23:03:35.041Z,2.12
2019-03-13T23:06:02.849Z,3.80
2019-03-13T23:08:31.268Z,15.08
2019-03-13T23:10:59.053Z,52.38
2019-03-13T23:13:26.429Z,47.93
2019-03-13T23:15:53.849Z,60.65
2019-03-13T23:18:21.161Z,66.87
2019-03-13T23:20:48.627Z,69.82
2019-03-13T23:23:16.101Z,70.35
2019-03-13T23:25:45.150Z,74.05
2019-03-13T23:28:12.492Z,71.77
2019-03-13T23:30:39.931Z,67.30
2019-03-13T23:33:07.357Z,65.08
2019-03-13T23:35:34.811Z,64.62
2019-03-13T23:38:02.218Z,62.50
2019-03-13T23:40:29.666Z,60.98
2019-03-13T23:42:57.078Z,58.08
2019-03-13T23:45:24.454Z,55.30
2019-03-13T23:47:51.857Z,54.25
2019-03-13T23:50:19.227Z,53.52
2019-03-13T23:52:46.655Z,53.83
2019-03-13T23:55:14.114Z,52.48
2019-03-13T23:57:41.524Z,51.15
